Time;durP1;ratioP1;P1;durP2;ratioP2;P2;SDS_P1;SDS_P2;PMS_P1;PMS_P2;Temp;Humidity;BMP_temperature;BMP_pressure;BME280_temperature;BME280_humidity;BME280_pressure;Samples;Min_cycle;Max_cycle;Signal;HPM_P1;HPM_P2
2022/10/13 00:01:18;;;;;;;19.80;7.20;;;;;;;8.91;86.77;100831.93;106069;1290;74061;-77
2022/10/13 00:04:06;;;;;;;15.50;6.60;;;;;;;8.91;86.18;100830.51;106068;1281;68939;-78
2022/10/13 00:06:53;;;;;;;18.00;7.40;;;;;;;8.87;86.42;100829.28;106072;1287;72723;-78
2022/10/13 00:09:45;;;;;;;17.70;7.40;;;;;;;8.81;86.24;100828.77;106059;1289;60378;-77
2022/10/13 00:12:37;;;;;;;20.50;8.00;;;;;;;8.77;86.48;100825.83;106102;1289;61382;-78
2022/10/13 00:15:27;;;;;;;18.10;8.20;;;;;;;8.74;86.41;100829.00;106083;1295;73914;-78
2022/10/13 00:18:15;;;;;;;17.60;6.90;;;;;;;8.73;86.57;100826.41;106051;1291;69073;-79
2022/10/13 00:21:09;;;;;;;20.10;8.00;;;;;;;8.72;86.97;100825.60;106059;1295;72449;-78
2022/10/13 00:23:57;;;;;;;16.70;7.70;;;;;;;8.71;86.81;100823.35;105956;1299;59014;-78
2022/10/13 00:26:45;;;;;;;21.60;9.00;;;;;;;8.70;86.69;100824.83;106110;1289;60024;-78
2022/10/13 00:29:38;;;;;;;21.00;7.90;;;;;;;8.68;86.81;100825.09;105962;1287;73764;-79
2022/10/13 00:32:26;;;;;;;16.00;7.10;;;;;;;8.67;86.83;100823.76;106073;1285;68883;-80
2022/10/13 00:35:14;;;;;;;21.00;8.00;;;;;;;8.67;86.97;100827.60;106049;1293;73706;-78
2022/10/13 00:38:01;;;;;;;17.20;6.30;;;;;;;8.69;86.95;100830.53;106094;1292;57189;-81
2022/10/13 00:40:54;;;;;;;16.80;7.90;;;;;;;8.71;87.20;100830.62;106087;1287;58937;-78
2022/10/13 00:43:56;;;;;;;20.70;7.10;;;;;;;8.73;86.72;100828.53;106073;1289;73855;-78
2022/10/13 00:46:44;;;;;;;17.70;6.80;;;;;;;8.73;86.76;100824.81;106093;1295;66523;-80
2022/10/13 00:49:32;;;;;;;15.80;7.30;;;;;;;8.74;86.63;100825.11;106075;1292;73865;-79
2022/10/13 00:52:22;;;;;;;16.90;7.50;;;;;;;8.75;87.08;100825.77;106041;1289;59511;-79
2022/10/13 00:55:12;;;;;;;17.20;7.40;;;;;;;8.76;86.72;100819.68;105157;1289;1002227;-79
2022/10/13 00:58:03;;;;;;;17.20;7.00;;;;;;;8.77;86.66;100819.95;106055;1287;73866;-79
2022/10/13 01:00:52;;;;;;;22.20;7.50;;;;;;;8.78;86.82;100817.61;106085;1294;66423;-78
2022/10/13 01:03:40;;;;;;;16.60;7.70;;;;;;;8.80;86.57;100810.42;106085;1289;71403;-76
2022/10/13 01:06:29;;;;;;;17.40;7.60;;;;;;;8.82;86.75;100811.54;106071;1288;57881;-79
2022/10/13 01:09:17;;;;;;;19.50;7.20;;;;;;;8.83;86.42;100808.81;106093;1291;60105;-78
2022/10/13 01:12:25;;;;;;;19.10;7.70;;;;;;;8.83;86.38;100805.29;106065;1288;72734;-77
2022/10/13 01:15:31;;;;;;;17.40;7.80;;;;;;;8.83;86.48;100806.90;105952;1292;68886;-78
2022/10/13 01:18:40;;;;;;;19.10;7.80;;;;;;;8.83;86.46;100807.44;105952;1290;73874;-78
2022/10/13 01:21:54;;;;;;;19.60;8.30;;;;;;;8.84;86.47;100800.45;105948;1288;57955;-77
2022/10/13 01:24:57;;;;;;;21.50;7.80;;;;;;;8.87;86.51;100791.28;106075;1288;61412;-78
2022/10/13 01:27:57;;;;;;;18.40;7.20;;;;;;;8.90;86.38;100799.79;106063;1294;73089;-77
2022/10/13 01:31:31;;;;;;;15.10;7.00;;;;;;;8.89;86.25;100790.27;106072;1293;67698;-78
2022/10/13 01:34:33;;;;;;;19.40;7.20;;;;;;;8.87;86.45;100791.82;105993;1292;73502;-78
2022/10/13 01:37:33;;;;;;;15.20;7.00;;;;;;;8.84;86.73;100785.94;106074;1294;60630;-77
2022/10/13 01:40:29;;;;;;;18.10;6.10;;;;;;;8.84;86.43;100790.01;106080;1289;60451;-79
2022/10/13 01:43:35;;;;;;;16.70;5.80;;;;;;;8.84;86.16;100789.99;106072;1288;72958;-79
2022/10/13 01:46:29;;;;;;;17.80;6.80;;;;;;;8.84;86.39;100780.11;105989;1293;67797;-79
2022/10/13 01:49:23;;;;;;;15.00;6.20;;;;;;;8.84;86.61;100775.31;105954;1279;72682;-77
2022/10/13 01:52:16;;;;;;;15.00;6.50;;;;;;;8.85;86.58;100770.63;106055;1295;57833;-78
2022/10/13 01:55:10;;;;;;;19.10;7.70;;;;;;;8.88;86.44;100767.71;105914;1292;60281;-77
2022/10/13 01:57:58;;;;;;;19.40;7.90;;;;;;;8.87;86.15;100762.92;106012;1292;74055;-77
2022/10/13 02:01:13;;;;;;;17.60;7.30;;;;;;;8.87;86.40;100763.66;105950;1292;67574;-79
2022/10/13 02:04:24;;;;;;;15.10;6.50;;;;;;;8.86;86.42;100765.65;105966;1289;72428;-78
2022/10/13 02:07:30;;;;;;;14.60;6.00;;;;;;;8.84;86.48;100760.59;106123;1287;57225;-79
2022/10/13 02:10:44;;;;;;;15.50;6.20;;;;;;;8.85;86.20;100757.38;105988;1292;60135;-78
2022/10/13 02:13:35;;;;;;;14.80;5.80;;;;;;;8.83;85.98;100754.30;106035;1289;74080;-78
2022/10/13 02:16:38;;;;;;;15.00;6.10;;;;;;;8.84;86.00;100756.05;106088;1281;67853;-78
2022/10/13 02:19:27;;;;;;;15.80;6.30;;;;;;;8.82;85.93;100753.67;105973;1289;70927;-77
2022/10/13 02:22:16;;;;;;;17.00;6.90;;;;;;;8.81;86.00;100752.33;105921;1297;60381;-78
2022/10/13 02:25:06;;;;;;;16.90;7.00;;;;;;;8.80;85.53;100748.51;106082;1287;59349;-77
2022/10/13 02:27:58;;;;;;;16.10;6.50;;;;;;;8.80;85.37;100749.01;105966;1292;71436;-78
2022/10/13 02:30:50;;;;;;;18.20;6.50;;;;;;;8.80;85.34;100748.67;105954;1292;68683;-78
2022/10/13 02:33:38;;;;;;;17.90;7.00;;;;;;;8.79;85.32;100750.89;106085;1289;73444;-78
2022/10/13 02:36:25;;;;;;;17.60;7.00;;;;;;;8.78;85.31;100749.34;106063;1284;58107;-77
2022/10/13 02:39:14;;;;;;;19.30;7.10;;;;;;;8.77;85.06;100748.48;106077;1289;61243;-78
2022/10/13 02:42:02;;;;;;;23.00;7.40;;;;;;;8.76;85.20;100749.61;106067;1288;71783;-78
2022/10/13 02:44:49;;;;;;;20.30;7.00;;;;;;;8.75;85.30;100744.91;106076;1289;68613;-78
2022/10/13 02:47:37;;;;;;;18.90;7.30;;;;;;;8.73;85.10;100739.71;105949;1289;72351;-77
2022/10/13 02:50:26;;;;;;;18.90;7.50;;;;;;;8.73;84.92;100739.70;106063;1289;59616;-77
2022/10/13 02:53:16;;;;;;;17.30;7.20;;;;;;;8.72;84.90;100742.23;106070;1297;60065;-78
2022/10/13 02:56:04;;;;;;;20.70;7.70;;;;;;;8.71;85.60;100736.13;106055;1289;72451;-79
2022/10/13 02:58:54;;;;;;;17.20;7.60;;;;;;;8.68;85.43;100737.52;105962;1292;68634;-78
2022/10/13 03:01:43;;;;;;;16.30;7.40;;;;;;;8.66;85.44;100737.47;106077;1297;73670;-78
2022/10/13 03:04:31;;;;;;;17.70;7.30;;;;;;;8.64;85.23;100736.16;106073;1287;57932;-77
2022/10/13 03:07:18;;;;;;;17.50;7.90;;;;;;;8.63;85.54;100733.96;106068;1287;60392;-78
2022/10/13 03:10:07;;;;;;;17.20;8.40;;;;;;;8.62;85.51;100734.15;105956;1294;73330;-78
2022/10/13 03:12:54;;;;;;;22.00;8.50;;;;;;;8.60;85.55;100735.69;106059;1289;67726;-78
2022/10/13 03:15:42;;;;;;;18.00;7.90;;;;;;;8.61;85.79;100728.20;106059;1287;73009;-78
2022/10/13 03:18:30;;;;;;;22.50;7.80;;;;;;;8.65;85.68;100735.21;106083;1289;57174;-77
2022/10/13 03:21:19;;;;;;;17.50;7.90;;;;;;;8.67;85.13;100733.36;106089;1289;60316;-77
2022/10/13 03:24:07;;;;;;;13.70;6.30;;;;;;;8.68;84.75;100732.04;106088;1290;72779;-77
2022/10/13 03:26:54;;;;;;;15.20;6.60;;;;;;;8.68;84.34;100735.38;106091;1295;67683;-78
2022/10/13 03:29:42;;;;;;;13.90;6.10;;;;;;;8.68;84.18;100732.75;106070;1289;71760;-78
2022/10/13 03:32:30;;;;;;;16.50;7.20;;;;;;;8.67;84.37;100729.95;106076;1292;57660;-77
2022/10/13 03:35:18;;;;;;;17.60;6.20;;;;;;;8.69;84.32;100731.45;106106;1289;59201;-78
2022/10/13 03:38:06;;;;;;;16.50;6.60;;;;;;;8.70;84.39;100728.38;106056;1289;71384;-78
2022/10/13 03:40:54;;;;;;;17.10;6.80;;;;;;;8.73;84.26;100723.82;106074;1281;68649;-78
2022/10/13 03:43:44;;;;;;;14.60;6.40;;;;;;;8.76;84.10;100722.58;106050;1293;73506;-78
2022/10/13 03:46:31;;;;;;;15.50;6.70;;;;;;;8.77;84.04;100720.05;106060;1289;57969;-78
2022/10/13 03:49:19;;;;;;;14.20;6.10;;;;;;;8.78;84.05;100720.14;106068;1281;60159;-78
2022/10/13 03:52:07;;;;;;;14.90;5.90;;;;;;;8.78;84.07;100718.20;106061;1286;73841;-77
2022/10/13 03:54:55;;;;;;;16.00;6.30;;;;;;;8.75;84.18;100714.98;106063;1291;68773;-78
2022/10/13 03:57:43;;;;;;;16.50;5.40;;;;;;;8.73;83.87;100711.91;106061;1288;73479;-77
2022/10/13 04:00:31;;;;;;;13.40;5.60;;;;;;;8.69;83.72;100711.83;106079;1289;60629;-77
2022/10/13 04:03:19;;;;;;;16.50;5.90;;;;;;;8.67;83.94;100709.11;106076;1290;60220;-78
2022/10/13 04:06:07;;;;;;;15.40;6.60;;;;;;;8.66;83.70;100710.58;106096;1287;72756;-77
2022/10/13 04:08:55;;;;;;;15.80;5.90;;;;;;;8.66;83.85;100709.50;106076;1289;66674;-78
2022/10/13 04:11:43;;;;;;;17.50;6.70;;;;;;;8.67;83.80;100708.73;106070;1287;71633;-78
2022/10/13 04:14:30;;;;;;;15.40;6.80;;;;;;;8.67;84.06;100711.20;106044;1287;59043;-78
2022/10/13 04:17:21;;;;;;;18.90;6.30;;;;;;;8.67;84.20;100709.64;106091;1289;58951;-77
2022/10/13 04:20:11;;;;;;;18.10;6.90;;;;;;;8.66;84.32;100706.70;106085;1288;73114;-77
2022/10/13 04:22:58;;;;;;;17.10;6.70;;;;;;;8.68;84.20;100703.92;106044;1288;67662;-77
2022/10/13 04:25:46;;;;;;;14.90;6.40;;;;;;;8.68;84.26;100702.13;106009;1290;72420;-78
2022/10/13 04:28:34;;;;;;;15.20;6.60;;;;;;;8.68;84.02;100697.20;106048;1290;59536;-79
2022/10/13 04:31:24;;;;;;;16.50;7.20;;;;;;;8.69;84.14;100696.23;106086;1289;61421;-79
2022/10/13 04:34:11;;;;;;;13.60;6.20;;;;;;;8.70;84.20;100691.61;105840;1294;73867;-78
2022/10/13 04:36:59;;;;;;;13.80;6.00;;;;;;;8.70;84.17;100691.61;105963;1289;69004;-77
2022/10/13 04:39:47;;;;;;;24.00;7.50;;;;;;;8.68;84.30;100690.99;105913;1284;73549;-77
2022/10/13 04:42:35;;;;;;;16.30;6.90;;;;;;;8.66;84.43;100688.27;105976;1297;59348;-78
2022/10/13 04:45:22;;;;;;;17.10;7.00;;;;;;;8.63;84.19;100686.55;106056;1288;60363;-78
2022/10/13 04:48:10;;;;;;;16.50;7.00;;;;;;;8.60;84.35;100685.98;106059;1289;71422;-78
2022/10/13 04:51:07;;;;;;;17.20;7.00;;;;;;;8.58;84.32;100688.80;106032;1289;67580;-79
2022/10/13 04:53:58;;;;;;;18.30;6.90;;;;;;;8.56;84.19;100686.56;106031;1292;73546;-78
2022/10/13 04:56:45;;;;;;;18.60;8.00;;;;;;;8.53;84.04;100686.56;106038;1292;57982;-77
2022/10/13 04:59:33;;;;;;;17.70;7.80;;;;;;;8.49;84.42;100680.27;105785;1289;59060;-79
2022/10/13 05:02:21;;;;;;;17.00;7.80;;;;;;;8.45;84.48;100681.56;106074;1287;73066;-77
2022/10/13 05:05:09;;;;;;;18.50;7.70;;;;;;;8.39;84.43;100688.07;106065;1289;68614;-77
2022/10/13 05:07:59;;;;;;;17.80;8.40;;;;;;;8.34;84.39;100686.23;105915;1291;73477;-78
2022/10/13 05:11:00;;;;;;;17.10;7.40;;;;;;;8.29;85.11;100692.22;106064;1284;59407;-79
2022/10/13 05:13:49;;;;;;;18.00;7.80;;;;;;;8.23;85.11;100695.55;105751;1297;58888;-78
2022/10/13 05:16:36;;;;;;;18.60;8.30;;;;;;;8.20;85.32;100688.30;106046;1290;71865;-78
2022/10/13 05:19:24;;;;;;;20.10;7.70;;;;;;;8.16;85.44;100688.48;106072;1289;67579;-80
2022/10/13 05:22:12;;;;;;;18.40;7.40;;;;;;;8.14;85.72;100685.77;106069;1289;72377;-79
2022/10/13 05:25:01;;;;;;;20.10;8.10;;;;;;;8.12;85.58;100685.05;106072;1284;57663;-77
2022/10/13 05:27:48;;;;;;;17.80;8.00;;;;;;;8.09;85.51;100685.04;105828;1285;185039;-80
2022/10/13 05:30:36;;;;;;;22.20;7.80;;;;;;;8.05;85.77;100679.81;105928;1290;72688;-79
2022/10/13 05:33:24;;;;;;;21.10;7.70;;;;;;;8.02;85.82;100679.26;106067;1289;68598;-79
2022/10/13 05:36:20;;;;;;;17.80;8.70;;;;;;;7.99;85.92;100677.50;106064;1288;71276;-78
2022/10/13 05:39:11;;;;;;;26.90;11.20;;;;;;;7.97;86.11;100675.61;106037;1287;58243;-79
2022/10/13 05:41:59;;;;;;;19.50;7.80;;;;;;;7.97;86.07;100673.84;106041;1292;60668;-79
2022/10/13 05:44:47;;;;;;;15.50;7.40;;;;;;;7.98;86.07;100670.98;106045;1291;73827;-80
2022/10/13 05:47:35;;;;;;;17.70;6.90;;;;;;;7.98;85.83;100666.56;105937;1288;69048;-79
2022/10/13 05:50:23;;;;;;;18.10;6.70;;;;;;;8.00;85.52;100660.27;106041;1287;72716;-79
2022/10/13 05:53:11;;;;;;;20.00;7.00;;;;;;;8.01;85.52;100662.00;106085;1289;57169;-75
2022/10/13 05:56:07;;;;;;;20.60;7.60;;;;;;;8.03;85.41;100659.94;106046;1292;60071;-76
2022/10/13 05:59:03;;;;;;;19.80;7.30;;;;;;;8.05;85.41;100660.19;105937;1287;74255;-78
2022/10/13 06:01:51;;;;;;;20.50;8.20;;;;;;;8.09;85.16;100670.20;105956;1284;66708;-76
2022/10/13 06:04:47;;;;;;;20.90;7.70;;;;;;;8.15;84.98;100673.70;106065;1289;71756;-75
2022/10/13 06:07:35;;;;;;;21.30;8.40;;;;;;;8.19;84.80;100672.77;106020;1297;59595;-78
2022/10/13 06:10:24;;;;;;;16.90;7.30;;;;;;;8.24;84.33;100669.69;106049;1287;61291;-76
2022/10/13 06:13:12;;;;;;;20.80;8.60;;;;;;;8.28;84.36;100663.61;106071;1284;73577;-76
2022/10/13 06:15:59;;;;;;;23.70;7.90;;;;;;;8.34;83.97;100659.38;106074;1289;68160;-75
2022/10/13 06:18:48;;;;;;;14.90;6.80;;;;;;;8.40;83.32;100659.73;104564;1282;1002275;-76
2022/10/13 06:21:37;;;;;;;15.70;6.60;;;;;;;8.46;83.55;100660.29;106066;1292;57147;-76
2022/10/13 06:24:25;;;;;;;17.90;6.30;;;;;;;8.48;83.04;100652.71;106039;1289;60236;-76
2022/10/13 06:27:13;;;;;;;24.70;7.10;;;;;;;8.49;82.38;100647.20;105934;1284;73091;-76
2022/10/13 06:30:02;;;;;;;18.00;6.70;;;;;;;8.53;82.28;100646.81;105918;1288;68635;-74
2022/10/13 06:32:49;;;;;;;17.30;6.00;;;;;;;8.59;82.22;100640.63;105997;1297;73584;-74
2022/10/13 06:35:37;;;;;;;21.40;7.70;;;;;;;8.69;81.73;100639.46;106042;1289;57949;-75
2022/10/13 06:38:25;;;;;;;16.10;6.60;;;;;;;8.81;81.34;100634.84;105317;1287;1002433;-77
2022/10/13 06:41:14;;;;;;;16.50;5.70;;;;;;;8.93;80.44;100627.77;106038;1284;73015;-75
2022/10/13 06:44:01;;;;;;;16.70;6.50;;;;;;;9.05;79.94;100630.38;103835;1289;1002889;-77
2022/10/13 06:46:49;;;;;;;15.90;5.50;;;;;;;9.23;79.49;100633.51;106045;1297;70980;-75
2022/10/13 06:49:38;;;;;;;17.60;6.00;;;;;;;9.60;77.87;100632.02;106026;1284;60574;-75
2022/10/13 06:52:30;;;;;;;16.00;5.20;;;;;;;10.46;75.17;100623.14;106069;1289;60142;-75
2022/10/13 06:55:19;;;;;;;16.10;5.20;;;;;;;12.05;72.92;100620.54;106039;1292;72857;-75
2022/10/13 06:58:06;;;;;;;15.60;5.40;;;;;;;13.84;67.53;100614.75;106099;1284;66503;-75
2022/10/13 07:00:54;;;;;;;12.40;4.50;;;;;;;15.29;58.75;100608.52;105922;1292;73431;-72
2022/10/13 07:03:42;;;;;;;21.10;6.30;;;;;;;16.46;54.15;100598.06;105945;1291;57710;-75
2022/10/13 07:06:30;;;;;;;14.70;5.30;;;;;;;17.63;50.13;100587.78;106056;1283;61556;-75
2022/10/13 07:09:19;;;;;;;13.00;4.50;;;;;;;18.65;47.27;100578.80;106025;1292;73066;-76
2022/10/13 07:12:07;;;;;;;15.50;4.30;;;;;;;19.31;43.52;100582.16;105932;1290;67963;-75
2022/10/13 07:14:54;;;;;;;16.20;4.80;;;;;;;19.82;42.51;100585.29;106035;1289;71556;-74
2022/10/13 07:17:42;;;;;;;14.40;4.40;;;;;;;20.44;40.75;100577.50;106027;1289;57762;-76
2022/10/13 07:20:30;;;;;;;13.30;3.80;;;;;;;21.00;39.02;100574.64;106054;1289;60296;-76
2022/10/13 07:23:18;;;;;;;20.70;5.20;;;;;;;21.37;38.03;100575.86;106053;1289;71714;-75
2022/10/13 07:26:13;;;;;;;13.90;4.90;;;;;;;21.56;37.23;100579.98;106039;1275;68285;-74
2022/10/13 07:29:01;;;;;;;16.00;4.80;;;;;;;21.73;36.98;100574.66;106047;1284;72744;-74
2022/10/13 07:31:48;;;;;;;16.60;4.90;;;;;;;22.00;36.02;100568.92;106060;1288;57771;-77
2022/10/13 07:34:36;;;;;;;14.80;4.70;;;;;;;22.48;35.56;100563.98;106065;1284;60116;-74
2022/10/13 07:37:25;;;;;;;10.70;4.30;;;;;;;23.00;34.36;100558.54;105925;1290;73964;-75
2022/10/13 07:40:12;;;;;;;15.40;4.60;;;;;;;23.34;33.79;100553.70;106039;1290;68629;-75
2022/10/13 07:43:01;;;;;;;11.50;4.10;;;;;;;23.54;32.15;100551.88;106066;1291;72413;-75
2022/10/13 07:45:49;;;;;;;16.40;4.70;;;;;;;23.41;32.20;100551.60;105925;1284;57791;-75
2022/10/13 07:48:40;;;;;;;13.90;5.00;;;;;;;23.56;32.08;100554.70;106066;1284;58932;-75
2022/10/13 07:51:27;;;;;;;13.00;4.60;;;;;;;23.80;31.77;100549.39;106061;1285;71368;-75
2022/10/13 07:54:17;;;;;;;27.90;5.20;;;;;;;24.23;31.86;100538.86;106067;1285;66281;-74
2022/10/13 07:57:10;;;;;;;20.80;5.40;;;;;;;24.47;31.41;100534.75;106040;1288;73512;-74
2022/10/13 07:59:57;;;;;;;14.50;5.00;;;;;;;24.47;30.26;100538.98;106046;1288;57727;-78
2022/10/13 08:02:49;;;;;;;14.90;4.80;;;;;;;24.43;29.96;100533.27;106055;1292;59026;-75
2022/10/13 08:05:38;;;;;;;13.50;4.40;;;;;;;24.47;30.10;100527.73;106062;1297;74022;-75
2022/10/13 08:08:27;;;;;;;15.60;4.60;;;;;;;24.58;30.34;100530.39;106031;1288;69200;-76
2022/10/13 08:11:16;;;;;;;15.60;4.60;;;;;;;24.62;30.23;100528.99;106053;1289;72448;-77
2022/10/13 08:14:04;;;;;;;15.80;4.40;;;;;;;25.04;29.47;100522.89;106076;1288;58298;-77
2022/10/13 08:16:52;;;;;;;14.10;4.90;;;;;;;25.04;28.96;100518.54;106050;1290;61148;-76
2022/10/13 08:19:40;;;;;;;13.30;4.50;;;;;;;25.11;28.90;100515.88;106047;1284;72594;-76
2022/10/13 08:22:28;;;;;;;16.20;4.80;;;;;;;25.10;28.93;100506.77;106031;1292;66940;-74
2022/10/13 08:25:16;;;;;;;13.70;4.20;;;;;;;24.72;28.85;100506.91;106003;1292;73457;-74
2022/10/13 08:28:16;;;;;;;14.20;4.40;;;;;;;24.40;29.65;100500.19;106063;1292;57228;-76
2022/10/13 08:31:04;;;;;;;13.90;4.80;;;;;;;24.75;29.73;100498.27;105978;1291;59063;-75
2022/10/13 08:33:52;;;;;;;13.20;4.20;;;;;;;25.14;28.95;100507.04;106023;1291;73855;-76
2022/10/13 08:36:39;;;;;;;12.30;4.00;;;;;;;25.24;28.78;100500.49;105937;1287;67759;-75
2022/10/13 08:39:28;;;;;;;14.60;4.10;;;;;;;25.31;28.19;100500.02;106043;1287;73273;-78
2022/10/13 08:42:20;;;;;;;13.60;4.20;;;;;;;25.38;28.01;100503.05;106044;1281;57353;-76
2022/10/13 08:45:18;;;;;;;14.80;4.90;;;;;;;25.20;27.90;100504.46;105962;1288;58755;-76
2022/10/13 08:48:41;;;;;;;13.30;4.40;;;;;;;25.06;27.88;100505.80;105941;1291;72811;-75
2022/10/13 08:51:29;;;;;;;11.70;3.90;;;;;;;24.70;27.99;100513.71;106013;1284;68714;-76
2022/10/13 08:54:20;;;;;;;13.70;3.80;;;;;;;24.38;28.72;100509.17;105902;1291;73746;-77
2022/10/13 08:57:09;;;;;;;12.10;3.50;;;;;;;24.28;28.55;100510.70;106045;1292;58769;-75
2022/10/13 08:59:57;;;;;;;13.70;4.20;;;;;;;24.58;28.52;100503.69;105981;1289;57848;-76
2022/10/13 09:02:45;;;;;;;10.80;3.80;;;;;;;24.18;28.30;100508.90;106057;1292;71428;-75
2022/10/13 09:05:47;;;;;;;11.10;3.50;;;;;;;23.97;28.95;100506.16;106049;1284;67593;-75
2022/10/13 09:08:47;;;;;;;11.50;3.60;;;;;;;24.15;28.57;100498.44;105916;1297;73488;-76
2022/10/13 09:11:44;;;;;;;10.70;3.70;;;;;;;23.98;28.67;100493.11;106024;1287;58157;-76
2022/10/13 09:14:39;;;;;;;13.60;3.70;;;;;;;24.01;28.48;100489.84;106055;1289;59950;-76
2022/10/13 09:17:28;;;;;;;11.10;3.00;;;;;;;23.88;28.50;100491.06;106010;1290;74062;-75
2022/10/13 09:20:27;;;;;;;11.80;3.80;;;;;;;23.96;28.76;100485.95;105919;1284;66481;-71
2022/10/13 09:23:21;;;;;;;11.90;3.60;;;;;;;24.00;28.22;100475.78;106030;1289;73872;-73
2022/10/13 09:26:21;;;;;;;10.50;3.50;;;;;;;24.26;28.49;100477.00;105698;1291;57189;-71
2022/10/13 09:29:17;;;;;;;11.60;3.40;;;;;;;24.57;27.70;100475.85;105864;1289;58807;-72
2022/10/13 09:32:25;;;;;;;13.30;3.60;;;;;;;24.80;27.41;100473.33;105981;1292;72817;-75
2022/10/13 09:35:21;;;;;;;10.00;3.20;;;;;;;24.53;27.46;100478.30;105841;1287;68649;-75
2022/10/13 09:38:13;;;;;;;11.10;3.70;;;;;;;24.39;27.57;100478.80;105880;1291;73656;-73
2022/10/13 09:41:07;;;;;;;11.80;3.70;;;;;;;24.77;27.45;100475.46;105946;1291;58158;-73
2022/10/13 09:44:09;;;;;;;14.00;3.30;;;;;;;24.94;27.17;100478.12;105976;1283;61126;-75
2022/10/13 09:47:03;;;;;;;12.60;3.70;;;;;;;24.94;27.09;100465.43;105856;1284;73032;-78
2022/10/13 09:50:23;;;;;;;10.90;3.50;;;;;;;25.00;27.30;100458.62;105857;1290;68653;-75
2022/10/13 09:53:25;;;;;;;12.20;3.90;;;;;;;25.59;26.26;100459.73;105964;1291;71009;-73
2022/10/13 09:56:27;;;;;;;10.80;3.40;;;;;;;25.66;26.26;100459.55;105918;1284;57648;-78
2022/10/13 09:59:35;;;;;;;9.10;3.30;;;;;;;26.00;25.56;100457.00;105853;1290;58778;-75
2022/10/13 10:02:33;;;;;;;10.70;3.10;;;;;;;25.67;25.89;100453.89;106011;1290;73944;-76
2022/10/13 10:05:56;;;;;;;11.80;3.60;;;;;;;25.56;26.01;100445.63;105932;1291;67845;-74
2022/10/13 10:09:21;;;;;;;11.50;3.70;;;;;;;25.66;26.27;100428.95;105894;1284;72379;-76
2022/10/13 10:12:19;;;;;;;10.30;3.50;;;;;;;25.90;25.96;100426.17;105891;1292;57647;-75
2022/10/13 10:15:25;;;;;;;10.80;3.50;;;;;;;26.12;25.77;100422.58;106046;1284;60120;-73
2022/10/13 10:18:24;;;;;;;11.40;3.90;;;;;;;26.60;25.40;100424.20;105946;1290;73855;-74
2022/10/13 10:22:32;;;;;;;12.90;4.20;;;;;;;25.98;25.33;100418.77;106031;1290;69064;-71
2022/10/13 10:26:04;;;;;;;10.80;3.40;;;;;;;25.76;25.95;100399.42;104894;1303;72745;-74
2022/10/13 10:29:15;;;;;;;11.80;3.70;;;;;;;25.86;25.62;100399.34;104392;1310;57888;-73
2022/10/13 10:32:32;;;;;;;11.20;3.70;;;;;;;25.38;25.70;100407.48;104543;1302;58080;-75
2022/10/13 10:35:43;;;;;;;9.80;3.70;;;;;;;24.64;26.55;100414.23;104506;1315;72883;-76
2022/10/13 10:38:37;;;;;;;11.40;3.60;;;;;;;24.30;27.10;100394.58;104373;1309;68758;-76
2022/10/13 10:41:43;;;;;;;11.70;3.60;;;;;;;24.34;27.15;100391.36;104359;1316;72550;-79
2022/10/13 10:44:41;;;;;;;10.30;3.50;;;;;;;24.42;27.03;100393.04;104511;1312;57985;-72
2022/10/13 10:47:40;;;;;;;10.60;3.50;;;;;;;24.56;27.23;100380.26;104036;1305;61178;-78
2022/10/13 10:50:30;;;;;;;8.70;3.50;;;;;;;24.45;27.17;100377.02;104121;1311;73922;-72
2022/10/13 10:53:56;;;;;;;11.70;3.00;;;;;;;24.11;27.68;100369.63;104009;1309;68774;-73
2022/10/13 10:56:54;;;;;;;12.30;3.70;;;;;;;24.55;27.26;100382.89;104107;1312;73530;-71
2022/10/13 11:00:03;;;;;;;10.80;3.80;;;;;;;24.11;27.32;100391.27;104025;1312;57863;-72
2022/10/13 11:03:29;;;;;;;9.80;3.40;;;;;;;23.81;27.67;100378.84;105065;1310;60458;-76
2022/10/13 11:06:31;;;;;;;11.30;3.30;;;;;;;23.39;28.08;100383.73;105611;1288;72172;-72
2022/10/13 11:09:40;;;;;;;11.10;3.50;;;;;;;23.01;28.90;100380.64;105737;1294;67302;-74
2022/10/13 11:12:51;;;;;;;11.10;3.30;;;;;;;23.09;28.80;100381.60;105667;1294;72630;-73
2022/10/13 11:15:45;;;;;;;10.60;3.70;;;;;;;23.12;28.96;100380.34;105689;1298;57541;-71
2022/10/13 11:19:04;;;;;;;12.50;4.00;;;;;;;23.05;28.82;100372.91;105859;1284;60204;-74
2022/10/13 11:21:53;;;;;;;10.20;3.40;;;;;;;22.27;29.96;100377.26;105945;1284;73023;-72
2022/10/13 11:24:40;;;;;;;12.60;4.10;;;;;;;22.02;30.78;100368.11;106042;1288;67925;-74
2022/10/13 11:27:40;;;;;;;10.70;3.10;;;;;;;21.65;31.30;100373.33;106056;1287;71935;-73
2022/10/13 11:30:47;;;;;;;10.90;4.00;;;;;;;21.19;31.98;100364.31;106042;1292;57938;-74
2022/10/13 11:33:52;;;;;;;11.30;4.10;;;;;;;20.91;32.58;100358.39;106066;1291;60352;-74
2022/10/13 11:36:50;;;;;;;12.70;3.50;;;;;;;20.80;32.87;100364.48;106058;1291;73862;-74
2022/10/13 11:40:32;;;;;;;12.80;4.10;;;;;;;20.74;32.89;100358.16;106057;1289;67676;-76
2022/10/13 11:43:26;;;;;;;11.00;3.20;;;;;;;20.74;33.25;100352.24;105465;1297;73040;-73
2022/10/13 11:46:32;;;;;;;10.20;3.60;;;;;;;20.35;33.80;100346.63;105424;1297;57543;-81
2022/10/13 11:49:41;;;;;;;9.80;4.30;;;;;;;20.22;34.11;100342.00;105461;1291;60073;-72
2022/10/13 11:53:23;;;;;;;12.70;3.60;;;;;;;20.31;33.92;100335.49;105474;1296;72737;-76
2022/10/13 11:56:53;;;;;;;10.40;3.60;;;;;;;20.08;34.44;100329.61;105333;1301;67543;-72
2022/10/13 11:59:45;;;;;;;12.00;4.00;;;;;;;19.96;34.59;100331.39;105300;1306;73499;-72
2022/10/13 12:02:33;;;;;;;12.70;4.40;;;;;;;19.53;34.71;100327.89;105296;1298;57703;-73
2022/10/13 12:05:25;;;;;;;10.10;3.50;;;;;;;19.12;35.29;100317.61;105317;1300;60371;-74
2022/10/13 12:08:14;;;;;;;12.60;3.70;;;;;;;19.03;35.83;100323.45;105265;1300;73978;-74
2022/10/13 12:11:06;;;;;;;10.20;3.40;;;;;;;18.81;36.20;100322.73;105311;1307;67559;-72
2022/10/13 12:13:55;;;;;;;13.40;3.70;;;;;;;18.56;36.71;100329.36;105292;1300;73682;-73
2022/10/13 12:16:57;;;;;;;12.10;4.50;;;;;;;18.32;37.56;100326.02;105310;1293;57909;-73
2022/10/13 12:19:45;;;;;;;13.60;4.60;;;;;;;17.91;38.12;100325.30;105378;1295;57963;-75
2022/10/13 12:22:33;;;;;;;12.40;3.90;;;;;;;17.62;38.67;100331.63;105752;1285;72738;-74
2022/10/13 12:25:32;;;;;;;13.60;3.80;;;;;;;17.52;38.91;100315.69;105677;1294;67577;-72
2022/10/13 12:28:20;;;;;;;11.30;4.20;;;;;;;17.52;39.00;100321.54;105944;1291;70964;-74
2022/10/13 12:31:37;;;;;;;11.40;3.90;;;;;;;17.25;39.44;100310.55;105991;1291;57725;-74
2022/10/13 12:34:32;;;;;;;11.30;3.90;;;;;;;17.08;40.35;100298.29;105896;1287;61260;-73
2022/10/13 12:37:32;;;;;;;11.10;3.50;;;;;;;16.93;40.64;100298.00;105775;1294;74302;-72
2022/10/13 12:40:21;;;;;;;12.20;4.30;;;;;;;16.72;40.92;100300.04;105951;1292;68905;-73
2022/10/13 12:43:23;;;;;;;13.60;4.10;;;;;;;16.38;41.68;100299.23;105874;1297;71314;-74
2022/10/13 12:46:11;;;;;;;12.70;4.20;;;;;;;16.18;42.31;100297.27;105883;1291;57162;-74
2022/10/13 12:49:11;;;;;;;16.40;4.20;;;;;;;15.97;42.65;100290.77;105977;1291;60388;-73
2022/10/13 12:52:15;;;;;;;11.80;4.10;;;;;;;15.81;43.43;100286.71;105959;1284;72728;-73
2022/10/13 12:55:03;;;;;;;11.30;4.00;;;;;;;15.65;43.90;100289.48;105783;1287;69075;-71
2022/10/13 12:57:51;;;;;;;12.00;3.60;;;;;;;15.44;43.96;100295.41;105979;1282;72602;-73
2022/10/13 13:00:39;;;;;;;11.20;3.70;;;;;;;15.24;44.83;100288.80;105853;1284;57687;-74
2022/10/13 13:03:29;;;;;;;9.40;3.80;;;;;;;15.13;45.14;100278.98;105865;1285;61294;-73
2022/10/13 13:06:16;;;;;;;10.30;3.70;;;;;;;15.02;45.32;100275.75;105875;1290;72927;-73
2022/10/13 13:09:19;;;;;;;10.50;3.80;;;;;;;14.87;45.66;100272.10;105987;1298;66706;-72
2022/10/13 13:12:10;;;;;;;10.20;3.30;;;;;;;14.79;46.12;100267.82;105854;1290;72838;-74
2022/10/13 13:15:20;;;;;;;13.00;3.90;;;;;;;14.71;46.20;100268.63;105953;1299;58499;-73
2022/10/13 13:18:26;;;;;;;11.10;4.40;;;;;;;14.62;46.54;100271.33;105875;1292;61342;-73